Time;durP1;ratioP1;P1;durP2;ratioP2;P2;SDS_P1;SDS_P2;PMS_P1;PMS_P2;Temp;Humidity;BMP_temperature;BMP_pressure;BME280_temperature;BME280_humidity;BME280_pressure;Samples;Min_cycle;Max_cycle;Signal;HPM_P1;HPM_P2
2022/06/10 00:00:15;;;;;;;;;;;16.20;99.90;;;;;;5031835;28;20003;-56
2022/06/10 00:02:43;;;;;;;;;;;16.20;99.90;;;;;;5031448;28;20349;-57
2022/06/10 00:05:12;;;;;;;;;;;16.10;99.90;;;;;;5031847;28;20452;-56
2022/06/10 00:07:38;;;;;;;;;;;16.20;99.90;;;;;;5031720;28;20401;-56
2022/06/10 00:10:04;;;;;;;;;;;16.20;99.90;;;;;;5031703;28;19940;-56
2022/06/10 00:12:29;;;;;;;;;;;16.20;99.90;;;;;;5031536;28;19905;-56
2022/06/10 00:14:55;;;;;;;;;;;16.20;99.90;;;;;;5031503;28;20416;-56
2022/06/10 00:17:20;;;;;;;;;;;16.20;99.90;;;;;;5030308;28;20408;-55
2022/06/10 00:19:46;;;;;;;;;;;16.20;99.90;;;;;;5032023;28;19909;-55
2022/06/10 00:22:11;;;;;;;;;;;16.20;99.90;;;;;;5031719;28;20281;-55
2022/06/10 00:24:37;;;;;;;;;;;16.30;99.90;;;;;;5031543;28;19917;-55
2022/06/10 00:27:03;;;;;;;;;;;16.20;99.90;;;;;;5031539;28;20018;-56
2022/06/10 00:29:28;;;;;;;;;;;16.30;99.90;;;;;;5031646;28;20377;-55
2022/06/10 00:31:54;;;;;;;;;;;16.20;99.90;;;;;;5031507;28;20345;-56
2022/06/10 00:34:19;;;;;;;;;;;16.20;99.90;;;;;;5030084;28;19996;-57
2022/06/10 00:36:45;;;;;;;;;;;16.20;99.90;;;;;;5031174;28;19913;-56
2022/06/10 00:39:10;;;;;;;;;;;16.20;99.90;;;;;;5031282;28;19913;-56
2022/06/10 00:41:39;;;;;;;;;;;16.20;99.90;;;;;;5031322;28;19905;-56
2022/06/10 00:44:05;;;;;;;;;;;16.20;99.90;;;;;;5031324;28;20011;-56
2022/06/10 00:46:34;;;;;;;;;;;16.20;99.90;;;;;;5031223;28;19952;-58
2022/06/10 00:49:05;;;;;;;;;;;16.20;99.90;;;;;;5031790;28;19955;-56
2022/06/10 00:51:34;;;;;;;;;;;16.20;99.90;;;;;;5031494;28;19905;-56
2022/06/10 00:54:12;;;;;;;;;;;16.20;99.90;;;;;;5031019;28;19905;-55
2022/06/10 00:56:39;;;;;;;;;;;16.20;99.90;;;;;;5030990;28;19956;-56
2022/06/10 00:59:11;;;;;;;;;;;16.10;99.90;;;;;;5030031;28;19967;-57
2022/06/10 01:01:37;;;;;;;;;;;16.10;99.90;;;;;;5030067;28;19955;-56
2022/06/10 01:04:03;;;;;;;;;;;16.00;99.90;;;;;;5034667;28;19917;-55
2022/06/10 01:06:29;;;;;;;;;;;16.00;99.90;;;;;;5034613;28;19948;-56
2022/06/10 01:08:55;;;;;;;;;;;16.00;99.90;;;;;;5034660;28;19948;-56
2022/06/10 01:11:36;;;;;;;;;;;16.00;99.90;;;;;;5034757;28;20418;-55
2022/06/10 01:14:04;;;;;;;;;;;16.10;99.90;;;;;;5034715;28;19909;-56
2022/06/10 01:16:50;;;;;;;;;;;16.10;99.90;;;;;;5034469;28;19911;-56
2022/06/10 01:19:18;;;;;;;;;;;16.10;99.90;;;;;;5034455;28;19916;-55
2022/06/10 01:22:02;;;;;;;;;;;16.00;99.90;;;;;;5034596;28;19905;-56
2022/06/10 01:24:36;;;;;;;;;;;16.00;99.90;;;;;;5034722;28;19995;-55
2022/06/10 01:30:05;;;;;;;;;;;16.00;99.90;;;;;;5034751;28;20063;-56
2022/06/10 01:32:33;;;;;;;;;;;16.00;99.90;;;;;;5034024;28;19975;-55
2022/06/10 01:34:59;;;;;;;;;;;16.00;99.90;;;;;;5034400;28;20372;-55
2022/06/10 01:37:45;;;;;;;;;;;16.00;99.90;;;;;;5049372;28;19943;-56
2022/06/10 01:40:31;;;;;;;;;;;16.00;99.90;;;;;;5012961;28;19909;-55
2022/06/10 01:42:59;;;;;;;;;;;16.00;99.90;;;;;;5033657;28;19906;-55
2022/06/10 01:45:37;;;;;;;;;;;16.00;99.90;;;;;;5049532;28;19972;-55
2022/06/10 01:48:10;;;;;;;;;;;15.90;99.90;;;;;;5033842;28;19948;-55
2022/06/10 01:50:39;;;;;;;;;;;15.90;99.90;;;;;;5034324;28;20006;-55
2022/06/10 01:53:07;;;;;;;;;;;16.00;99.90;;;;;;5033857;28;19909;-56
2022/06/10 01:55:36;;;;;;;;;;;16.00;99.90;;;;;;5033787;28;20074;-55
2022/06/10 01:58:07;;;;;;;;;;;16.00;99.90;;;;;;5033716;28;19955;-55
2022/06/10 02:00:34;;;;;;;;;;;16.00;99.90;;;;;;5034024;28;19932;-55
2022/06/10 02:03:15;;;;;;;;;;;16.00;99.90;;;;;;5033735;28;19905;-60
2022/06/10 02:05:43;;;;;;;;;;;16.00;99.90;;;;;;5033408;28;19951;-57
2022/06/10 02:08:12;;;;;;;;;;;16.00;99.90;;;;;;5033310;28;19909;-56
2022/06/10 02:10:40;;;;;;;;;;;16.00;99.90;;;;;;5034471;28;19905;-56
2022/06/10 02:13:08;;;;;;;;;;;16.00;99.90;;;;;;5034156;28;19905;-56
2022/06/10 02:15:38;;;;;;;;;;;16.00;99.90;;;;;;5033247;28;19908;-57
2022/06/10 02:18:07;;;;;;;;;;;16.00;99.90;;;;;;5033561;28;20370;-55
2022/06/10 02:20:34;;;;;;;;;;;15.90;99.90;;;;;;5032220;28;20362;-55
2022/06/10 02:23:01;;;;;;;;;;;15.90;99.90;;;;;;5033493;28;19905;-55
2022/06/10 02:25:32;;;;;;;;;;;15.90;99.90;;;;;;5033443;28;19905;-56
2022/06/10 02:27:59;;;;;;;;;;;15.90;99.90;;;;;;5033232;28;19905;-56
2022/06/10 02:30:34;;;;;;;;;;;16.00;99.90;;;;;;5033335;28;20228;-56
2022/06/10 02:33:00;;;;;;;;;;;15.90;99.90;;;;;;5032925;28;20000;-56
2022/06/10 02:35:27;;;;;;;;;;;15.90;99.90;;;;;;5033346;28;20031;-56
2022/06/10 02:37:59;;;;;;;;;;;15.90;99.90;;;;;;5032855;28;20027;-56
2022/06/10 02:40:37;;;;;;;;;;;15.90;99.90;;;;;;5033034;28;19940;-56
2022/06/10 02:43:11;;;;;;;;;;;16.00;99.90;;;;;;5032997;28;19905;-56
2022/06/10 02:45:36;;;;;;;;;;;16.00;99.90;;;;;;5032807;28;19931;-56
2022/06/10 02:48:20;;;;;;;;;;;16.00;99.90;;;;;;5032586;28;19905;-56
2022/06/10 02:50:46;;;;;;;;;;;16.00;99.90;;;;;;5033230;28;20435;-55
2022/06/10 02:53:12;;;;;;;;;;;16.00;99.90;;;;;;5032768;28;19905;-55
2022/06/10 02:55:38;;;;;;;;;;;16.00;99.90;;;;;;5032615;28;19908;-55
2022/06/10 03:03:51;;;;;;;;;;;16.00;99.90;;;;;;5032570;28;20150;-56
2022/06/10 03:06:29;;;;;;;;;;;16.00;99.90;;;;;;5032634;28;19909;-56
2022/06/10 03:08:58;;;;;;;;;;;16.10;99.90;;;;;;5032486;28;20012;-55
2022/06/10 03:11:37;;;;;;;;;;;16.10;99.90;;;;;;5032311;28;19909;-57
2022/06/10 03:14:16;;;;;;;;;;;16.00;99.90;;;;;;5032692;28;19909;-56
2022/06/10 03:16:48;;;;;;;;;;;16.10;99.90;;;;;;5032263;28;19909;-56
2022/06/10 03:19:30;;;;;;;;;;;16.10;99.90;;;;;;5048009;28;19936;-56
2022/06/10 03:22:10;;;;;;;;;;;16.20;99.90;;;;;;5032861;28;19905;-56
2022/06/10 03:24:46;;;;;;;;;;;16.20;99.90;;;;;;5031916;28;19909;-56
2022/06/10 03:27:14;;;;;;;;;;;16.20;99.90;;;;;;5014669;28;19909;-56
2022/06/10 03:29:47;;;;;;;;;;;16.10;99.90;;;;;;5032171;28;20449;-56
2022/06/10 03:32:16;;;;;;;;;;;16.10;99.90;;;;;;5032368;28;19912;-56
2022/06/10 03:34:46;;;;;;;;;;;16.20;99.90;;;;;;5032079;28;20284;-55
2022/06/10 03:37:13;;;;;;;;;;;16.20;99.90;;;;;;5032091;28;19928;-55
2022/06/10 03:39:41;;;;;;;;;;;16.20;99.90;;;;;;5032097;28;20325;-55
2022/06/10 03:42:09;;;;;;;;;;;16.20;99.90;;;;;;5031956;28;19959;-55
2022/06/10 03:44:35;;;;;;;;;;;16.20;99.90;;;;;;5031975;28;20362;-55
2022/06/10 03:47:03;;;;;;;;;;;16.20;99.90;;;;;;5032040;28;19909;-55
2022/06/10 03:49:40;;;;;;;;;;;16.30;99.90;;;;;;5031754;28;19914;-55
2022/06/10 03:52:05;;;;;;;;;;;16.20;99.90;;;;;;5032056;28;19916;-56
2022/06/10 03:54:31;;;;;;;;;;;16.20;99.90;;;;;;5031755;28;19905;-56
2022/06/10 03:56:56;;;;;;;;;;;16.20;99.90;;;;;;5031842;28;20354;-56
2022/06/10 03:59:22;;;;;;;;;;;16.20;99.90;;;;;;5031784;28;19905;-56
2022/06/10 04:01:48;;;;;;;;;;;16.20;99.90;;;;;;5032046;28;19905;-56
2022/06/10 04:04:14;;;;;;;;;;;16.30;99.90;;;;;;5031528;28;19904;-54
2022/06/10 04:06:39;;;;;;;;;;;16.30;99.90;;;;;;5031594;28;20549;-55
2022/06/10 04:09:05;;;;;;;;;;;16.30;99.90;;;;;;5031398;28;19908;-55
2022/06/10 04:11:30;;;;;;;;;;;16.20;99.90;;;;;;5031942;28;19915;-55
2022/06/10 04:13:56;;;;;;;;;;;16.30;99.90;;;;;;5031515;28;19928;-55
2022/06/10 04:16:21;;;;;;;;;;;16.20;99.90;;;;;;5031557;28;19927;-55
2022/06/10 04:18:47;;;;;;;;;;;16.30;99.90;;;;;;5031671;28;19959;-55
2022/06/10 04:21:12;;;;;;;;;;;16.30;99.90;;;;;;5030480;28;19908;-55
2022/06/10 04:23:38;;;;;;;;;;;16.30;99.90;;;;;;5031524;28;19905;-56
2022/06/10 04:26:04;;;;;;;;;;;16.30;99.90;;;;;;5031387;28;19905;-55
2022/06/10 04:28:30;;;;;;;;;;;16.30;99.90;;;;;;5031269;28;20396;-55
2022/06/10 04:30:55;;;;;;;;;;;16.20;99.90;;;;;;5031905;28;19991;-56
2022/06/10 04:33:21;;;;;;;;;;;16.30;99.90;;;;;;5031614;28;19951;-56
2022/06/10 04:35:48;;;;;;;;;;;16.20;99.90;;;;;;5031429;28;19909;-57
2022/06/10 04:38:15;;;;;;;;;;;16.30;99.90;;;;;;5033837;28;19921;-56
2022/06/10 04:40:41;;;;;;;;;;;16.20;99.90;;;;;;5034516;28;19948;-56
2022/06/10 04:43:07;;;;;;;;;;;16.20;99.90;;;;;;5035385;28;19905;-56
2022/06/10 04:45:34;;;;;;;;;;;16.20;99.90;;;;;;5035246;28;19905;-55
2022/06/10 04:48:00;;;;;;;;;;;16.30;99.90;;;;;;5035064;28;19915;-56
2022/06/10 04:50:27;;;;;;;;;;;16.30;99.90;;;;;;5035457;28;19905;-56
2022/06/10 04:52:53;;;;;;;;;;;16.30;99.90;;;;;;5034987;28;19904;-56
2022/06/10 04:55:19;;;;;;;;;;;16.30;99.90;;;;;;5035216;28;20004;-56
2022/06/10 04:57:44;;;;;;;;;;;16.30;99.90;;;;;;5034833;28;19914;-56
2022/06/10 05:00:13;;;;;;;;;;;16.30;99.90;;;;;;5035144;28;19915;-55
2022/06/10 05:02:39;;;;;;;;;;;16.30;99.90;;;;;;5035047;28;19905;-56
2022/06/10 05:05:07;;;;;;;;;;;16.40;99.90;;;;;;5034805;28;20370;-57
2022/06/10 05:07:32;;;;;;;;;;;16.30;99.90;;;;;;5034957;28;20317;-56
2022/06/10 05:09:58;;;;;;;;;;;16.40;99.90;;;;;;5035141;28;19917;-55
2022/06/10 05:12:23;;;;;;;;;;;16.40;99.90;;;;;;5034570;28;19937;-56
2022/06/10 05:14:49;;;;;;;;;;;16.40;99.90;;;;;;5034692;28;19905;-55
2022/06/10 05:17:15;;;;;;;;;;;16.40;99.90;;;;;;5034698;28;19948;-56
2022/06/10 05:19:40;;;;;;;;;;;16.50;99.90;;;;;;5034675;28;19905;-56
2022/06/10 05:22:06;;;;;;;;;;;16.50;99.90;;;;;;5034907;28;19916;-55
2022/06/10 05:24:31;;;;;;;;;;;16.50;99.90;;;;;;5034326;28;19905;-54
2022/06/10 05:26:56;;;;;;;;;;;16.40;99.90;;;;;;5034177;28;19908;-55
2022/06/10 05:29:22;;;;;;;;;;;16.50;99.90;;;;;;5034020;28;19909;-55
2022/06/10 05:31:47;;;;;;;;;;;16.50;99.90;;;;;;5033984;28;19905;-55
2022/06/10 05:36:57;;;;;;;;;;;16.50;99.90;;;;;;5034287;28;19924;-55
2022/06/10 05:39:22;;;;;;;;;;;16.50;99.90;;;;;;5032342;28;20134;-55
2022/06/10 05:44:45;;;;;;;;;;;16.60;99.90;;;;;;5029336;28;19905;-54
2022/06/10 05:47:39;;;;;;;;;;;16.60;99.90;;;;;;5033484;28;19905;-54
2022/06/10 05:50:12;;;;;;;;;;;16.60;99.90;;;;;;5024614;28;19948;-54
2022/06/10 05:52:39;;;;;;;;;;;16.60;99.90;;;;;;5033527;28;19999;-54
2022/06/10 05:55:05;;;;;;;;;;;16.60;99.90;;;;;;5033284;28;19905;-55
2022/06/10 05:57:31;;;;;;;;;;;16.70;99.90;;;;;;5032675;28;19905;-54
2022/06/10 05:59:57;;;;;;;;;;;16.70;99.90;;;;;;5025580;28;20289;-56
2022/06/10 06:02:23;;;;;;;;;;;16.80;99.90;;;;;;5024725;28;22043;-55
2022/06/10 06:04:48;;;;;;;;;;;16.90;99.90;;;;;;5026696;28;19932;-55
2022/06/10 06:07:18;;;;;;;;;;;16.90;99.90;;;;;;5026817;28;20132;-55
2022/06/10 06:09:44;;;;;;;;;;;16.90;99.90;;;;;;5019758;28;19999;-55
2022/06/10 06:12:09;;;;;;;;;;;17.00;99.90;;;;;;5020605;28;20007;-55
2022/06/10 06:14:35;;;;;;;;;;;16.90;99.90;;;;;;5032515;23;19944;-76
2022/06/10 06:17:02;;;;;;;;;;;16.90;99.90;;;;;;5028692;28;19920;-75
2022/06/10 06:19:28;;;;;;;;;;;17.00;99.90;;;;;;5027564;28;19909;-75
2022/06/10 06:21:53;;;;;;;;;;;17.00;99.90;;;;;;5025832;28;19924;-77
2022/06/10 06:24:19;;;;;;;;;;;17.00;99.90;;;;;;5027247;28;20262;-75
2022/06/10 06:26:45;;;;;;;;;;;17.10;99.90;;;;;;5044987;28;20369;-77
2022/06/10 06:29:10;;;;;;;;;;;17.00;99.90;;;;;;5032092;28;20370;-79
2022/06/10 06:31:36;;;;;;;;;;;16.90;99.90;;;;;;5039251;28;19948;-76
2022/06/10 06:34:02;;;;;;;;;;;16.90;99.90;;;;;;5024178;28;19996;-75
2022/06/10 06:36:29;;;;;;;;;;;16.90;99.90;;;;;;5037692;28;20310;-75
2022/06/10 06:38:54;;;;;;;;;;;16.90;99.90;;;;;;5021198;28;19953;-75
2022/06/10 06:41:21;;;;;;;;;;;16.90;99.90;;;;;;5028838;28;19951;-75
2022/06/10 06:43:47;;;;;;;;;;;16.80;99.90;;;;;;5024038;28;20529;-76
2022/06/10 06:46:13;;;;;;;;;;;16.90;99.90;;;;;;5023608;28;19927;-76
2022/06/10 06:48:39;;;;;;;;;;;16.90;99.90;;;;;;5041239;28;19912;-75
2022/06/10 06:51:06;;;;;;;;;;;17.00;99.90;;;;;;5025942;28;19913;-76
2022/06/10 06:53:32;;;;;;;;;;;17.20;99.90;;;;;;5020103;28;19913;-75
2022/06/10 06:55:58;;;;;;;;;;;17.30;99.90;;;;;;5024467;28;20274;-76
2022/06/10 06:58:23;;;;;;;;;;;17.40;99.90;;;;;;5027808;28;19913;-76
2022/06/10 07:00:49;;;;;;;;;;;17.40;99.90;;;;;;5044113;28;19917;-76
2022/06/10 07:03:15;;;;;;;;;;;17.50;99.90;;;;;;5024918;28;19912;-76
2022/06/10 07:05:42;;;;;;;;;;;17.50;99.90;;;;;;5027250;28;19947;-76
2022/06/10 07:08:08;;;;;;;;;;;17.60;99.90;;;;;;5027154;28;19925;-76
2022/06/10 07:10:34;;;;;;;;;;;17.70;99.90;;;;;;5026489;28;19923;-75
2022/06/10 07:12:59;;;;;;;;;;;17.80;99.90;;;;;;5026691;28;20009;-75
2022/06/10 07:15:25;;;;;;;;;;;18.00;99.90;;;;;;5018487;28;19917;-75
2022/06/10 07:17:51;;;;;;;;;;;18.10;99.90;;;;;;5017484;28;20384;-74
2022/06/10 07:20:21;;;;;;;;;;;18.10;99.90;;;;;;5019661;28;19932;-75
2022/06/10 07:22:47;;;;;;;;;;;18.40;99.90;;;;;;5037857;28;20270;-76
2022/06/10 07:25:14;;;;;;;;;;;18.50;99.90;;;;;;5025332;28;19909;-76
2022/06/10 07:27:40;;;;;;;;;;;18.50;99.90;;;;;;5025033;28;19923;-76
2022/06/10 07:30:07;;;;;;;;;;;18.60;99.90;;;;;;5024765;28;20012;-76
2022/06/10 07:32:33;;;;;;;;;;;18.50;99.90;;;;;;5027465;28;19908;-76
2022/06/10 07:34:58;;;;;;;;;;;18.60;99.90;;;;;;5026252;28;19927;-75
2022/06/10 07:37:24;;;;;;;;;;;18.70;99.90;;;;;;5024625;28;19923;-75
2022/06/10 07:39:50;;;;;;;;;;;18.80;99.90;;;;;;5024853;28;20628;-76
2022/06/10 07:42:16;;;;;;;;;;;19.00;99.90;;;;;;5025895;28;19925;-75
2022/06/10 07:44:41;;;;;;;;;;;19.00;99.90;;;;;;5023830;28;19917;-75
2022/06/10 07:47:09;;;;;;;;;;;19.40;99.90;;;;;;5027153;28;20358;-75
2022/06/10 07:49:35;;;;;;;;;;;19.50;99.90;;;;;;5028890;28;19913;-76
2022/06/10 07:52:03;;;;;;;;;;;20.20;99.90;;;;;;5025389;28;19998;-76
2022/06/10 07:54:29;;;;;;;;;;;20.70;99.90;;;;;;5025140;28;19932;-76
2022/06/10 07:56:55;;;;;;;;;;;21.70;99.90;;;;;;5027684;28;19916;-76
2022/06/10 07:59:20;;;;;;;;;;;21.70;99.90;;;;;;5026005;28;19920;-76
2022/06/10 08:01:46;;;;;;;;;;;21.90;99.90;;;;;;5026619;28;20006;-76
2022/06/10 08:04:11;;;;;;;;;;;21.80;99.90;;;;;;5024585;28;19912;-75
2022/06/10 08:06:40;;;;;;;;;;;21.00;99.90;;;;;;5028485;28;20404;-76
2022/06/10 08:09:05;;;;;;;;;;;20.80;99.90;;;;;;5026035;28;20369;-76
2022/06/10 08:11:31;;;;;;;;;;;20.70;99.90;;;;;;5025204;28;19991;-77
2022/06/10 08:13:57;;;;;;;;;;;21.40;99.90;;;;;;5028235;28;19990;-78
2022/06/10 08:16:23;;;;;;;;;;;22.50;99.90;;;;;;5026642;28;19940;-78
2022/06/10 08:18:49;;;;;;;;;;;23.40;99.90;;;;;;5034113;28;19909;-75
2022/06/10 08:24:16;;;;;;;;;;;24.20;99.90;;;;;;5021352;28;19909;-79
2022/06/10 08:26:42;;;;;;;;;;;24.10;99.90;;;;;;5023935;28;19955;-76
2022/06/10 08:29:07;;;;;;;;;;;23.90;99.90;;;;;;5026405;28;20350;-77
2022/06/10 08:31:34;;;;;;;;;;;23.80;99.90;;;;;;5024084;28;19913;-75
2022/06/10 08:33:59;;;;;;;;;;;23.60;99.90;;;;;;5027549;28;19909;-74
2022/06/10 08:36:25;;;;;;;;;;;24.10;99.90;;;;;;5029115;28;19917;-74
2022/06/10 08:38:51;;;;;;;;;;;24.80;99.90;;;;;;5028470;28;19917;-74
2022/06/10 08:41:45;;;;;;;;;;;24.70;99.90;;;;;;5029569;28;19909;-74
2022/06/10 08:44:21;;;;;;;;;;;24.70;99.90;;;;;;5026331;28;19917;-76
2022/06/10 08:46:47;;;;;;;;;;;25.30;99.90;;;;;;5028090;28;19917;-74
2022/06/10 08:49:26;;;;;;;;;;;25.60;99.90;;;;;;5031009;28;19931;-75
2022/06/10 08:51:58;;;;;;;;;;;24.80;99.90;;;;;;5027707;28;19921;-74
2022/06/10 08:54:40;;;;;;;;;;;24.90;99.90;;;;;;5030474;28;19923;-75
2022/06/10 08:57:11;;;;;;;;;;;25.10;99.90;;;;;;5029461;28;19909;-76
2022/06/10 08:59:38;;;;;;;;;;;25.20;99.90;;;;;;5029505;28;19961;-75
2022/06/10 09:02:05;;;;;;;;;;;25.40;99.90;;;;;;5029717;28;19916;-74
2022/06/10 09:04:37;;;;;;;;;;;24.90;99.90;;;;;;5044935;28;19920;-75
2022/06/10 09:07:06;;;;;;;;;;;24.70;99.90;;;;;;5044045;28;19913;-75
2022/06/10 09:09:32;;;;;;;;;;;23.20;99.90;;;;;;5026878;28;19985;-74
2022/06/10 09:11:57;;;;;;;;;;;23.20;99.90;;;;;;5026349;28;20773;-75
2022/06/10 09:14:24;;;;;;;;;;;23.90;99.90;;;;;;5027260;28;19936;-75
2022/06/10 09:16:53;;;;;;;;;;;24.00;99.90;;;;;;5027585;28;19928;-74
2022/06/10 09:19:37;;;;;;;;;;;24.40;99.90;;;;;;5024896;28;19917;-74
2022/06/10 09:22:18;;;;;;;;;;;24.20;99.90;;;;;;5044815;28;19987;-75
2022/06/10 09:24:48;;;;;;;;;;;24.00;99.90;;;;;;5027357;28;19916;-75
2022/06/10 09:27:17;;;;;;;;;;;24.40;99.90;;;;;;5028243;28;19916;-76
2022/06/10 09:29:43;;;;;;;;;;;24.40;99.90;;;;;;5030742;28;20342;-75
2022/06/10 09:32:11;;;;;;;;;;;23.90;99.90;;;;;;5028138;28;19913;-75
2022/06/10 09:34:47;;;;;;;;;;;23.40;99.90;;;;;;5032056;28;19917;-75
2022/06/10 09:37:21;;;;;;;;;;;23.30;99.90;;;;;;5026646;28;20081;-75
2022/06/10 09:42:35;;;;;;;;;;;23.70;99.90;;;;;;5024292;28;19919;-75
2022/06/10 09:45:14;;;;;;;;;;;24.80;99.90;;;;;;5043599;28;20365;-75
2022/06/10 09:47:47;;;;;;;;;;;25.40;99.90;;;;;;5024838;28;19917;-75
2022/06/10 09:50:26;;;;;;;;;;;25.10;99.90;;;;;;5025209;28;20358;-76
2022/06/10 09:53:12;;;;;;;;;;;25.20;99.90;;;;;;5026412;28;20435;-75
2022/06/10 09:55:38;;;;;;;;;;;25.70;99.90;;;;;;5028331;28;20076;-75
2022/06/10 09:58:11;;;;;;;;;;;24.70;99.90;;;;;;5029166;28;20436;-75
2022/06/10 10:00:58;;;;;;;;;;;24.30;99.90;;;;;;5042303;28;19967;-73
2022/06/10 10:03:33;;;;;;;;;;;24.80;99.90;;;;;;5024890;28;19913;-75
2022/06/10 10:06:17;;;;;;;;;;;24.30;99.90;;;;;;5044087;28;19921;-76
2022/06/10 10:08:46;;;;;;;;;;;23.90;99.90;;;;;;5028832;28;20358;-75
2022/06/10 10:11:14;;;;;;;;;;;24.00;99.90;;;;;;5023743;28;19947;-75
2022/06/10 10:13:47;;;;;;;;;;;23.70;99.90;;;;;;5038765;28;19912;-76
2022/06/10 10:16:15;;;;;;;;;;;24.10;99.90;;;;;;5023009;28;20224;-75
2022/06/10 10:18:56;;;;;;;;;;;24.60;99.90;;;;;;5027577;28;19913;-76
2022/06/10 10:21:28;;;;;;;;;;;24.30;99.90;;;;;;5032105;28;19909;-76
2022/06/10 10:23:54;;;;;;;;;;;23.90;99.90;;;;;;5046837;28;19977;-77
2022/06/10 10:26:25;;;;;;;;;;;23.40;99.90;;;;;;5030447;28;19909;-78
2022/06/10 10:28:57;;;;;;;;;;;23.20;99.90;;;;;;5030764;28;19955;-77
2022/06/10 10:31:24;;;;;;;;;;;22.90;99.90;;;;;;5032602;28;19923;-77
2022/06/10 10:33:50;;;;;;;;;;;22.60;99.90;;;;;;5037082;28;20366;-79
2022/06/10 10:36:36;;;;;;;;;;;22.40;99.90;;;;;;5032652;28;19916;-78
2022/06/10 10:39:14;;;;;;;;;;;22.10;99.90;;;;;;5023814;28;20352;-78
2022/06/10 10:41:42;;;;;;;;;;;22.00;99.90;;;;;;5034846;28;20290;-78
2022/06/10 10:44:20;;;;;;;;;;;22.20;99.90;;;;;;5033060;28;20331;-80
2022/06/10 10:47:04;;;;;;;;;;;22.50;99.90;;;;;;5031743;28;20385;-79
2022/06/10 10:49:34;;;;;;;;;;;23.30;99.90;;;;;;5045834;28;19921;-77
2022/06/10 10:52:05;;;;;;;;;;;23.30;99.90;;;;;;5029016;28;20362;-77
2022/06/10 10:54:33;;;;;;;;;;;23.30;99.90;;;;;;5034921;28;20481;-76
2022/06/10 10:56:59;;;;;;;;;;;23.30;99.90;;;;;;5034960;28;19913;-79
2022/06/10 10:59:30;;;;;;;;;;;23.30;99.90;;;;;;5027809;28;19916;-77
2022/06/10 11:01:56;;;;;;;;;;;23.50;99.90;;;;;;5028046;28;19915;-76
2022/06/10 11:04:35;;;;;;;;;;;23.50;99.90;;;;;;5027041;28;20342;-78
2022/06/10 11:07:09;;;;;;;;;;;23.60;99.90;;;;;;5031912;28;20320;-76
2022/06/10 11:09:42;;;;;;;;;;;23.30;99.90;;;;;;5039075;28;19936;-77
2022/06/10 11:12:12;;;;;;;;;;;23.60;99.90;;;;;;5025860;28;19913;-77
2022/06/10 11:14:38;;;;;;;;;;;23.70;99.90;;;;;;5028042;28;19928;-77
2022/06/10 11:17:11;;;;;;;;;;;23.50;99.90;;;;;;5026628;28;19917;-77
2022/06/10 11:19:37;;;;;;;;;;;23.10;99.90;;;;;;5043639;28;19963;-77
2022/06/10 11:22:02;;;;;;;;;;;23.60;99.90;;;;;;5030600;28;19920;-77
2022/06/10 11:24:31;;;;;;;;;;;24.50;99.90;;;;;;5028296;28;20488;-77
2022/06/10 11:26:58;;;;;;;;;;;25.30;99.90;;;;;;5023457;28;19909;-77
2022/06/10 11:29:24;;;;;;;;;;;26.00;99.90;;;;;;5033662;28;19968;-77
2022/06/10 11:32:16;;;;;;;;;;;26.20;99.90;;;;;;5029318;28;20595;-77
2022/06/10 11:34:43;;;;;;;;;;;26.10;99.90;;;;;;5028580;28;20011;-78
2022/06/10 11:37:32;;;;;;;;;;;25.90;99.90;;;;;;5036621;28;19995;-78
2022/06/10 11:40:09;;;;;;;;;;;26.00;99.90;;;;;;5027287;28;19958;-77
2022/06/10 11:42:39;;;;;;;;;;;25.80;99.90;;;;;;5030272;28;19909;-77
2022/06/10 11:45:16;;;;;;;;;;;24.90;99.90;;;;;;5029182;28;19909;-77
2022/06/10 11:47:52;;;;;;;;;;;24.30;99.90;;;;;;5029381;28;20022;-77
2022/06/10 11:50:21;;;;;;;;;;;24.90;99.90;;;;;;5029587;28;20519;-77
2022/06/10 11:53:05;;;;;;;;;;;25.20;99.90;;;;;;5028395;28;19963;-77
2022/06/10 11:55:32;;;;;;;;;;;25.50;99.90;;;;;;5031411;28;19917;-78
2022/06/10 12:00:57;;;;;;;;;;;25.50;99.90;;;;;;5029767;28;19978;-78
2022/06/10 12:03:43;;;;;;;;;;;24.80;99.90;;;;;;5026165;28;19913;-79
2022/06/10 12:06:14;;;;;;;;;;;24.10;99.90;;;;;;5029554;28;19909;-76
2022/06/10 12:08:42;;;;;;;;;;;23.90;99.90;;;;;;5031599;28;19913;-79
2022/06/10 12:11:27;;;;;;;;;;;23.90;99.90;;;;;;5045979;28;19924;-77
2022/06/10 12:14:11;;;;;;;;;;;24.40;99.90;;;;;;5024991;28;19962;-75
2022/06/10 12:16:38;;;;;;;;;;;24.70;99.90;;;;;;5024061;28;19955;-74
2022/06/10 12:19:06;;;;;;;;;;;24.90;99.90;;;;;;5023307;28;19989;-74
2022/06/10 12:21:32;;;;;;;;;;;25.00;99.90;;;;;;5020229;28;20384;-74
2022/06/10 12:23:57;;;;;;;;;;;24.80;99.90;;;;;;5022285;28;19909;-74
2022/06/10 12:26:45;;;;;;;;;;;24.70;99.90;;;;;;5024544;28;19917;-75
2022/06/10 12:29:17;;;;;;;;;;;24.60;99.90;;;;;;5027059;28;20036;-76
2022/06/10 12:31:53;;;;;;;;;;;24.40;99.90;;;;;;5028151;28;19992;-75
2022/06/10 12:34:19;;;;;;;;;;;24.10;99.90;;;;;;5023851;28;19916;-76
2022/06/10 12:36:47;;;;;;;;;;;23.60;99.90;;;;;;5027027;28;19912;-75
2022/06/10 12:39:28;;;;;;;;;;;23.30;99.90;;;;;;5025113;28;20143;-75
2022/06/10 12:42:01;;;;;;;;;;;23.10;99.90;;;;;;5027683;28;19916;-76
2022/06/10 12:44:28;;;;;;;;;;;22.80;99.90;;;;;;5027122;28;19931;-76
2022/06/10 12:46:56;;;;;;;;;;;22.80;99.90;;;;;;5025922;28;20366;-77
2022/06/10 12:49:48;;;;;;;;;;;22.80;99.90;;;;;;5026625;28;19928;-75
2022/06/10 12:52:26;;;;;;;;;;;22.80;99.90;;;;;;5020389;28;19917;-75
2022/06/10 12:54:57;;;;;;;;;;;22.90;99.90;;;;;;5025872;28;19963;-75
2022/06/10 12:57:29;;;;;;;;;;;23.20;99.90;;;;;;5026126;28;19913;-77
2022/06/10 13:00:17;;;;;;;;;;;23.40;99.90;;;;;;5032985;28;19912;-72
2022/06/10 13:02:46;;;;;;;;;;;23.90;99.90;;;;;;5028357;28;20577;-77
2022/06/10 13:05:27;;;;;;;;;;;23.90;99.90;;;;;;5031407;28;19909;-76
2022/06/10 13:07:54;;;;;;;;;;;24.20;99.90;;;;;;5044466;28;20012;-76
2022/06/10 13:10:28;;;;;;;;;;;24.00;99.90;;;;;;5033773;28;19913;-76
2022/06/10 13:12:57;;;;;;;;;;;23.80;99.90;;;;;;5031748;28;19964;-75
2022/06/10 13:15:24;;;;;;;;;;;24.00;99.90;;;;;;5029268;28;20047;-76
2022/06/10 13:17:56;;;;;;;;;;;23.80;99.90;;;;;;5033325;28;20281;-78
2022/06/10 13:20:22;;;;;;;;;;;23.50;99.90;;;;;;5030380;28;19975;-75
2022/06/10 13:23:11;;;;;;;;;;;23.20;99.90;;;;;;5031407;28;20274;-77
2022/06/10 13:25:37;;;;;;;;;;;23.10;99.90;;;;;;5028429;28;19940;-78
2022/06/10 13:28:11;;;;;;;;;;;23.10;99.90;;;;;;5032540;28;20533;-77
2022/06/10 13:30:36;;;;;;;;;;;23.20;99.90;;;;;;5036545;28;19970;-77
2022/06/10 13:33:04;;;;;;;;;;;23.20;99.90;;;;;;5038092;28;19912;-78
2022/06/10 13:35:33;;;;;;;;;;;23.20;99.90;;;;;;5034667;28;19963;-77
2022/06/10 13:38:01;;;;;;;;;;;23.20;99.90;;;;;;5037213;28;19909;-75
2022/06/10 13:40:28;;;;;;;;;;;23.30;99.90;;;;;;5037716;28;19905;-77
2022/06/10 13:42:56;;;;;;;;;;;23.40;99.90;;;;;;5036682;28;19990;-77
2022/06/10 13:45:24;;;;;;;;;;;23.60;99.90;;;;;;5036808;28;20436;-78
2022/06/10 13:48:00;;;;;;;;;;;23.50;99.90;;;;;;5037527;28;19905;-77
2022/06/10 13:53:26;;;;;;;;;;;23.10;99.90;;;;;;5039001;28;19918;-78
2022/06/10 13:55:57;;;;;;;;;;;22.90;99.90;;;;;;5038278;28;20277;-76
2022/06/10 13:58:24;;;;;;;;;;;22.90;99.90;;;;;;5036488;28;20008;-77
2022/06/10 14:00:55;;;;;;;;;;;23.20;99.90;;;;;;5035758;28;19905;-76
2022/06/10 14:03:29;;;;;;;;;;;23.70;99.90;;;;;;5036964;28;19908;-76
2022/06/10 14:05:55;;;;;;;;;;;23.60;99.90;;;;;;5035019;28;20266;-76
2022/06/10 14:08:21;;;;;;;;;;;23.70;99.90;;;;;;5035374;28;19905;-76
2022/06/10 14:10:48;;;;;;;;;;;23.50;99.90;;;;;;5036960;28;19967;-76
2022/06/10 14:13:19;;;;;;;;;;;23.40;99.90;;;;;;5034833;28;19909;-76
2022/06/10 14:15:51;;;;;;;;;;;23.60;99.90;;;;;;5034747;28;19944;-77
2022/06/10 14:18:21;;;;;;;;;;;23.80;99.90;;;;;;5035871;28;20309;-76
2022/06/10 14:20:47;;;;;;;;;;;23.90;99.90;;;;;;5034996;28;19913;-76
2022/06/10 14:23:25;;;;;;;;;;;24.10;99.90;;;;;;5035791;28;19905;-76
2022/06/10 14:26:02;;;;;;;;;;;24.20;99.90;;;;;;5053114;28;19928;-77
2022/06/10 14:28:28;;;;;;;;;;;24.30;99.90;;;;;;5037300;28;19931;-76
2022/06/10 14:30:56;;;;;;;;;;;24.40;99.90;;;;;;5036177;28;20396;-76
2022/06/10 14:33:25;;;;;;;;;;;24.30;99.90;;;;;;5037601;28;20274;-76
2022/06/10 14:35:52;;;;;;;;;;;23.90;99.90;;;;;;5053015;28;19905;-76
2022/06/10 14:38:19;;;;;;;;;;;23.70;99.90;;;;;;5035383;28;19912;-76
2022/06/10 14:41:03;;;;;;;;;;;23.70;99.90;;;;;;5036534;28;19905;-76
2022/06/10 14:43:31;;;;;;;;;;;23.50;99.90;;;;;;5037649;28;20332;-76
2022/06/10 14:46:01;;;;;;;;;;;23.20;99.90;;;;;;5036624;28;20011;-77
2022/06/10 14:48:29;;;;;;;;;;;23.40;99.90;;;;;;5036740;28;19987;-76
2022/06/10 14:51:15;;;;;;;;;;;23.70;99.90;;;;;;5037319;28;19931;-76
2022/06/10 14:53:45;;;;;;;;;;;23.70;99.90;;;;;;5036802;28;19912;-76
2022/06/10 14:56:15;;;;;;;;;;;23.90;99.90;;;;;;5038523;28;19913;-76